createdAt,value
2019-04-16T00:00:26.780Z,17.67
2019-04-16T00:02:57.931Z,17.15
2019-04-16T00:05:31.811Z,17.37
2019-04-16T00:08:10.062Z,17.35
2019-04-16T00:10:36.728Z,16.75
2019-04-16T00:13:10.580Z,16.70
2019-04-16T00:15:41.340Z,17.73
2019-04-16T00:18:11.363Z,17.15
2019-04-16T00:20:45.463Z,17.12
2019-04-16T00:23:16.606Z,16.37
2019-04-16T00:25:46.287Z,17.60
2019-04-16T00:28:15.865Z,16.73
2019-04-16T00:30:45.441Z,16.05
2019-04-16T00:33:16.117Z,16.55
2019-04-16T00:35:46.599Z,16.10
2019-04-16T00:38:16.773Z,16.42
2019-04-16T00:40:46.336Z,16.70
2019-04-16T00:43:15.947Z,16.55
2019-04-16T00:45:45.687Z,16.12
2019-04-16T00:48:15.247Z,16.07
2019-04-16T00:50:46.068Z,16.17
2019-04-16T00:53:15.637Z,16.52
2019-04-16T00:55:45.857Z,17.15
2019-04-16T00:58:19.466Z,16.40
2019-04-16T01:00:47.743Z,16.65
2019-04-16T01:03:17.338Z,16.95
2019-04-16T01:05:46.947Z,15.30
2019-04-16T01:08:16.520Z,15.83
2019-04-16T01:10:46.154Z,16.65
2019-04-16T01:13:15.708Z,16.27
2019-04-16T01:15:45.301Z,15.98
2019-04-16T01:18:14.908Z,15.83
2019-04-16T01:20:44.485Z,15.78
2019-04-16T01:23:17.492Z,14.85
2019-04-16T01:25:45.283Z,15.15
2019-04-16T01:28:22.217Z,15.20
2019-04-16T01:31:06.823Z,15.35
2019-04-16T01:33:50.983Z,15.53
2019-04-16T01:36:22.838Z,15.80
2019-04-16T01:39:10.896Z,15.10
2019-04-16T01:41:26.071Z,14.63
2019-04-16T01:43:57.176Z,15.32
2019-04-16T01:46:26.877Z,14.60
2019-04-16T01:48:56.461Z,14.95
2019-04-16T01:51:26.072Z,14.85
2019-04-16T01:53:55.641Z,14.03
2019-04-16T01:56:27.942Z,14.68
2019-04-16T01:58:56.429Z,14.25
2019-04-16T02:01:25.995Z,14.18
2019-04-16T02:03:55.567Z,14.25
2019-04-16T02:06:26.070Z,14.43
2019-04-16T02:08:56.339Z,14.70
2019-04-16T02:11:25.902Z,13.80
2019-04-16T02:13:55.464Z,13.78
2019-04-16T02:16:25.930Z,13.90
2019-04-16T02:18:55.607Z,14.70
2019-04-16T02:21:26.245Z,13.85
2019-04-16T02:23:56.820Z,13.65
2019-04-16T02:26:26.394Z,14.07
2019-04-16T02:28:56.441Z,13.60
2019-04-16T02:31:27.173Z,14.28
2019-04-16T02:33:56.784Z,14.50
2019-04-16T02:36:26.369Z,13.80
2019-04-16T02:38:55.936Z,14.80
2019-04-16T02:41:25.526Z,13.80
2019-04-16T02:43:56.208Z,14.53
2019-04-16T02:46:30.551Z,13.95
2019-04-16T02:48:58.195Z,14.55
2019-04-16T02:51:32.301Z,13.85
2019-04-16T02:54:03.458Z,13.70
2019-04-16T02:56:51.531Z,14.10
2019-04-16T02:59:19.519Z,14.55
2019-04-16T03:01:51.906Z,13.90
2019-04-16T03:04:27.699Z,13.85
2019-04-16T03:06:57.448Z,14.38
2019-04-16T03:09:27.020Z,14.15
2019-04-16T03:11:56.601Z,13.40
2019-04-16T03:14:29.792Z,13.95
2019-04-16T03:17:10.663Z,14.55
2019-04-16T03:19:51.269Z,13.80
2019-04-16T03:22:21.707Z,13.60
2019-04-16T03:24:51.639Z,13.65
2019-04-16T03:27:23.036Z,13.80
2019-04-16T03:29:52.696Z,14.95
2019-04-16T03:32:22.299Z,13.43
2019-04-16T03:34:53.283Z,13.65
2019-04-16T03:37:23.083Z,14.40
2019-04-16T03:39:52.690Z,13.65
2019-04-16T03:42:24.425Z,14.05
2019-04-16T03:44:53.442Z,13.65
2019-04-16T03:47:24.224Z,13.40
2019-04-16T03:49:56.364Z,13.65
2019-04-16T03:52:24.963Z,14.03
2019-04-16T03:54:54.727Z,13.28
2019-04-16T03:57:25.248Z,13.65
2019-04-16T03:59:54.828Z,13.58
2019-04-16T04:02:24.597Z,13.68
2019-04-16T04:04:54.170Z,13.03
2019-04-16T04:07:23.733Z,13.32
2019-04-16T04:09:54.629Z,13.10
2019-04-16T04:12:27.759Z,12.70
2019-04-16T04:14:56.776Z,14.18
2019-04-16T04:17:27.459Z,13.50
2019-04-16T04:19:57.044Z,13.50
2019-04-16T04:22:26.695Z,13.98
2019-04-16T04:24:56.213Z,12.53
2019-04-16T04:27:25.790Z,12.95
2019-04-16T04:29:56.542Z,12.30
2019-04-16T04:32:26.565Z,12.78
2019-04-16T04:34:56.191Z,12.13
2019-04-16T04:37:31.014Z,11.88
2019-04-16T04:39:58.980Z,12.70
2019-04-16T04:42:29.022Z,12.85
2019-04-16T04:44:59.504Z,12.73
2019-04-16T04:47:29.263Z,12.18
2019-04-16T04:50:02.897Z,12.70
2019-04-16T04:52:30.073Z,12.35
2019-04-16T04:54:59.646Z,12.55
2019-04-16T04:57:31.234Z,12.55
2019-04-16T05:00:00.577Z,12.20
2019-04-16T05:02:31.754Z,12.55
2019-04-16T05:05:02.919Z,12.43
2019-04-16T05:07:32.481Z,12.53
2019-04-16T05:10:04.551Z,11.65
2019-04-16T05:12:33.255Z,13.00
2019-04-16T05:15:03.993Z,13.08
2019-04-16T05:17:35.447Z,13.05
2019-04-16T05:20:06.928Z,12.85
2019-04-16T05:22:36.522Z,12.65
2019-04-16T05:25:06.299Z,13.15
2019-04-16T05:27:40.251Z,13.30
2019-04-16T05:30:07.292Z,12.75
2019-04-16T05:32:36.878Z,12.13
2019-04-16T05:35:10.321Z,12.47
2019-04-16T05:37:38.450Z,12.37
2019-04-16T05:40:08.171Z,12.73
2019-04-16T05:42:37.744Z,12.60
2019-04-16T05:45:07.530Z,12.40
2019-04-16T05:47:37.129Z,13.08
2019-04-16T05:50:06.682Z,11.97
2019-04-16T05:52:36.702Z,12.43
2019-04-16T05:55:20.769Z,11.85
2019-04-16T05:57:52.149Z,12.68
2019-04-16T06:00:23.270Z,12.35
2019-04-16T06:02:54.605Z,13.18
2019-04-16T06:05:26.821Z,15.65
2019-04-16T06:07:57.004Z,14.95
2019-04-16T06:10:26.888Z,15.98
2019-04-16T06:13:14.414Z,14.95
2019-04-16T06:15:50.253Z,15.32
2019-04-16T06:18:27.244Z,14.98
2019-04-16T06:21:10.341Z,14.47
2019-04-16T06:23:48.289Z,13.72
2019-04-16T06:26:34.286Z,13.70
2019-04-16T06:29:05.442Z,13.43
2019-04-16T06:31:52.988Z,13.62
2019-04-16T06:34:33.400Z,12.70
2019-04-16T06:37:10.182Z,12.35
2019-04-16T06:39:44.238Z,11.97
2019-04-16T06:42:22.313Z,12.13
2019-04-16T06:44:57.523Z,11.97
2019-04-16T06:47:28.637Z,12.58
2019-04-16T06:49:59.791Z,12.15
2019-04-16T06:52:30.934Z,11.97
2019-04-16T06:55:17.578Z,11.55
2019-04-16T06:58:00.530Z,11.40
2019-04-16T07:00:37.625Z,11.28
2019-04-16T07:03:09.764Z,11.25
2019-04-16T07:05:43.943Z,11.57
2019-04-16T07:08:17.731Z,10.72
2019-04-16T07:10:59.960Z,10.93
2019-04-16T07:13:29.522Z,10.32
2019-04-16T07:15:59.120Z,10.10
2019-04-16T07:18:28.713Z,9.55
2019-04-16T07:20:58.462Z,9.90
2019-04-16T07:23:28.147Z,9.40
2019-04-16T07:25:58.627Z,9.63
2019-04-16T07:28:44.936Z,10.03
2019-04-16T07:31:35.128Z,9.75
2019-04-16T07:34:12.421Z,9.45
2019-04-16T07:36:52.000Z,10.08
2019-04-16T07:39:30.201Z,9.53
2019-04-16T07:42:11.319Z,9.63
2019-04-16T07:45:10.807Z,9.43
2019-04-16T07:47:39.008Z,9.60
2019-04-16T07:50:14.675Z,8.80
2019-04-16T07:52:46.688Z,8.15
2019-04-16T07:55:23.726Z,8.53
2019-04-16T07:57:55.753Z,8.10
2019-04-16T08:00:25.676Z,7.50
2019-04-16T08:02:55.477Z,7.90
2019-04-16T08:05:27.878Z,8.03
2019-04-16T08:07:56.327Z,7.42
2019-04-16T08:10:26.863Z,7.47
2019-04-16T08:13:00.544Z,7.47
2019-04-16T08:15:29.272Z,7.47
2019-04-16T08:17:59.136Z,7.78
2019-04-16T08:20:28.685Z,7.15
2019-04-16T08:23:00.047Z,7.65
2019-04-16T08:25:34.208Z,7.30
2019-04-16T08:28:02.240Z,7.00
2019-04-16T08:30:39.018Z,6.42
2019-04-16T08:33:03.274Z,6.03
2019-04-16T08:35:32.866Z,9.38
2019-04-16T08:38:02.435Z,11.20
2019-04-16T08:40:32.027Z,10.03
2019-04-16T08:43:01.600Z,10.55
2019-04-16T08:45:31.183Z,10.03
2019-04-16T08:48:02.166Z,9.15
2019-04-16T08:50:31.852Z,9.43
2019-04-16T08:53:01.698Z,8.38
2019-04-16T08:55:32.264Z,8.08
2019-04-16T08:58:05.880Z,8.53
2019-04-16T09:00:34.384Z,8.23
2019-04-16T09:03:04.253Z,7.65
2019-04-16T09:05:34.747Z,7.03
2019-04-16T09:08:14.920Z,7.30
2019-04-16T09:10:44.879Z,7.25
2019-04-16T09:13:25.193Z,7.25
2019-04-16T09:15:54.755Z,6.97
2019-04-16T09:18:28.940Z,6.08
2019-04-16T09:20:58.492Z,5.50
2019-04-16T09:23:28.059Z,5.67
2019-04-16T09:26:12.455Z,5.87
2019-04-16T09:28:47.228Z,5.80
2019-04-16T09:31:22.158Z,5.25
2019-04-16T09:33:57.204Z,5.00
2019-04-16T09:36:27.043Z,5.05
2019-04-16T09:38:58.154Z,5.03
2019-04-16T09:41:29.327Z,4.60
2019-04-16T09:44:00.285Z,5.17
2019-04-16T09:46:49.843Z,4.83
2019-04-16T09:49:04.809Z,5.50
2019-04-16T09:51:32.811Z,5.20
2019-04-16T09:54:02.353Z,5.53
2019-04-16T09:56:31.940Z,6.05
2019-04-16T09:59:06.509Z,6.70
2019-04-16T10:01:43.674Z,9.45
2019-04-16T10:04:14.812Z,12.07
2019-04-16T10:06:44.411Z,15.10
2019-04-16T10:09:17.026Z,21.55
2019-04-16T10:11:45.201Z,20.00
2019-04-16T10:14:14.775Z,29.07
2019-04-16T10:16:44.363Z,35.08
2019-04-16T10:19:13.970Z,36.53
2019-04-16T10:21:43.537Z,36.75
2019-04-16T10:24:17.661Z,42.55
2019-04-16T10:26:48.784Z,41.80
2019-04-16T10:29:20.164Z,38.33
2019-04-16T10:31:49.743Z,46.15
2019-04-16T10:34:19.394Z,46.68
2019-04-16T10:36:48.985Z,46.15
2019-04-16T10:39:32.386Z,50.35
2019-04-16T10:42:15.366Z,54.42
2019-04-16T10:44:55.477Z,58.20
2019-04-16T10:47:29.332Z,58.63
2019-04-16T10:50:06.381Z,67.40
2019-04-16T10:52:55.396Z,64.77
2019-04-16T10:55:26.491Z,62.98
2019-04-16T10:58:14.721Z,69.90
2019-04-16T11:00:46.013Z,65.05
2019-04-16T11:03:17.264Z,65.45
2019-04-16T11:05:49.338Z,67.72
2019-04-16T11:08:18.952Z,69.62
2019-04-16T11:10:48.608Z,68.00
2019-04-16T11:13:26.080Z,69.80
2019-04-16T11:15:57.263Z,63.63
2019-04-16T11:18:26.866Z,61.73
2019-04-16T11:20:56.622Z,62.58
2019-04-16T11:23:26.277Z,64.37
2019-04-16T11:25:55.853Z,65.40
2019-04-16T11:28:25.510Z,63.60
2019-04-16T11:30:59.566Z,60.67
2019-04-16T11:33:29.295Z,65.12
2019-04-16T11:35:58.859Z,63.30
2019-04-16T11:38:28.452Z,68.10
2019-04-16T11:40:58.205Z,63.28
2019-04-16T11:43:27.789Z,66.90
2019-04-16T11:45:57.412Z,61.95
2019-04-16T11:48:26.996Z,65.22
2019-04-16T11:50:56.587Z,66.35
2019-04-16T11:53:26.215Z,64.22
2019-04-16T11:55:55.837Z,63.28
2019-04-16T11:58:42.254Z,62.83
2019-04-16T12:01:29.850Z,63.00
2019-04-16T12:04:03.708Z,68.95
2019-04-16T12:06:38.543Z,66.07
2019-04-16T12:09:26.737Z,66.47
2019-04-16T12:11:57.893Z,70.32
2019-04-16T12:14:34.693Z,72.08
2019-04-16T12:17:10.793Z,70.37
2019-04-16T12:19:58.320Z,73.30
2019-04-16T12:22:29.474Z,72.10
2019-04-16T12:25:00.669Z,74.58
2019-04-16T12:27:31.921Z,72.42
2019-04-16T12:30:05.954Z,69.65
2019-04-16T12:32:40.447Z,65.60
2019-04-16T12:35:14.494Z,62.48
2019-04-16T12:38:02.303Z,63.78
2019-04-16T12:40:36.519Z,67.42
2019-04-16T12:43:07.649Z,70.25
2019-04-16T12:45:38.862Z,70.45
2019-04-16T12:48:19.883Z,68.35
2019-04-16T12:51:07.341Z,70.55
2019-04-16T12:53:38.516Z,72.47
2019-04-16T12:56:24.822Z,79.12
2019-04-16T12:58:58.904Z,71.30
2019-04-16T13:01:33.207Z,69.53
2019-04-16T13:04:02.989Z,66.05
2019-04-16T13:06:41.136Z,60.52
2019-04-16T13:09:28.870Z,61.85
2019-04-16T13:12:08.422Z,58.75
2019-04-16T13:14:59.842Z,60.92
2019-04-16T13:17:26.483Z,57.23
2019-04-16T13:20:06.441Z,57.13
2019-04-16T13:22:37.631Z,56.33
2019-04-16T13:25:17.835Z,55.55
2019-04-16T13:27:50.801Z,57.75
2019-04-16T13:30:19.385Z,59.40
2019-04-16T13:32:49.971Z,60.12
2019-04-16T13:35:19.550Z,56.90
2019-04-16T13:37:49.147Z,57.60
2019-04-16T13:40:18.737Z,55.63
2019-04-16T13:42:48.632Z,57.03
2019-04-16T13:45:27.048Z,54.33
2019-04-16T13:47:56.857Z,53.68
2019-04-16T13:50:35.990Z,55.45
2019-04-16T13:53:03.630Z,53.85
2019-04-16T13:55:41.538Z,55.48
2019-04-16T13:58:23.481Z,52.08
2019-04-16T14:00:57.437Z,53.25
2019-04-16T14:03:27.855Z,53.05
2019-04-16T14:05:57.440Z,54.15
2019-04-16T14:08:28.979Z,53.87
2019-04-16T14:10:59.118Z,49.42
2019-04-16T14:13:28.836Z,53.65
2019-04-16T14:15:58.826Z,52.60
2019-04-16T14:18:29.523Z,53.38
2019-04-16T14:20:59.670Z,51.58
2019-04-16T14:23:29.245Z,53.83
2019-04-16T14:25:58.907Z,55.30
2019-04-16T14:28:28.459Z,54.00
2019-04-16T14:30:58.047Z,52.35
2019-04-16T14:33:29.220Z,55.63
2019-04-16T14:36:02.947Z,55.52
2019-04-16T14:38:39.817Z,50.38
2019-04-16T14:41:14.424Z,53.45
2019-04-16T14:43:44.900Z,56.00
2019-04-16T14:46:14.509Z,53.05
2019-04-16T14:48:46.484Z,55.85
2019-04-16T14:51:16.304Z,53.35
2019-04-16T14:53:56.234Z,51.50
2019-04-16T14:56:27.506Z,56.70
2019-04-16T14:59:02.492Z,53.17
2019-04-16T15:01:33.651Z,50.45
2019-04-16T15:04:05.249Z,53.02
2019-04-16T15:06:39.447Z,50.73
2019-04-16T15:09:16.447Z,52.20
2019-04-16T15:12:07.856Z,50.38
2019-04-16T15:14:37.702Z,52.75
2019-04-16T15:17:12.997Z,50.48
2019-04-16T15:19:50.354Z,51.23
2019-04-16T15:22:21.515Z,52.67
2019-04-16T15:24:52.700Z,53.25
2019-04-16T15:27:36.178Z,52.13
2019-04-16T15:30:17.704Z,50.12
2019-04-16T15:32:51.820Z,52.10
2019-04-16T15:35:22.972Z,52.27
2019-04-16T15:38:06.232Z,52.43
2019-04-16T15:40:40.152Z,50.08
2019-04-16T15:43:12.914Z,51.37
2019-04-16T15:46:06.758Z,49.23
2019-04-16T15:48:40.333Z,52.70
2019-04-16T15:51:18.674Z,53.20
2019-04-16T15:53:50.522Z,48.48
2019-04-16T15:56:31.528Z,49.90
2019-04-16T15:59:03.732Z,48.02
2019-04-16T16:01:51.258Z,47.60
2019-04-16T16:04:25.395Z,49.53
2019-04-16T16:06:59.417Z,48.50
2019-04-16T16:09:41.128Z,48.73
2019-04-16T16:12:12.949Z,47.45
2019-04-16T16:14:42.576Z,51.55
2019-04-16T16:17:12.325Z,49.40
2019-04-16T16:19:41.897Z,47.62
2019-04-16T16:22:12.190Z,51.73
2019-04-16T16:24:42.986Z,49.10
2019-04-16T16:27:12.822Z,50.70
2019-04-16T16:29:42.382Z,47.80
2019-04-16T16:32:11.996Z,48.25
2019-04-16T16:34:41.571Z,48.92
2019-04-16T16:37:11.164Z,47.10
2019-04-16T16:39:40.844Z,49.35
2019-04-16T16:42:10.628Z,47.95
2019-04-16T16:44:40.323Z,48.63
2019-04-16T16:47:23.690Z,50.03
2019-04-16T16:49:54.409Z,48.70
2019-04-16T16:52:42.434Z,50.17
2019-04-16T16:55:16.368Z,49.40
2019-04-16T16:57:59.625Z,46.63
2019-04-16T17:00:36.899Z,46.98
2019-04-16T17:03:10.168Z,47.35
2019-04-16T17:05:41.142Z,48.50
2019-04-16T17:08:11.707Z,44.65
2019-04-16T17:10:42.738Z,45.28
2019-04-16T17:13:14.485Z,43.98
2019-04-16T17:15:43.598Z,40.73
2019-04-16T17:18:13.160Z,42.60
2019-04-16T17:20:42.748Z,40.03
2019-04-16T17:23:16.278Z,39.55
2019-04-16T17:25:44.395Z,39.70
2019-04-16T17:28:13.983Z,38.17
2019-04-16T17:30:43.552Z,37.83
2019-04-16T17:33:13.166Z,35.63
2019-04-16T17:35:46.220Z,35.58
2019-04-16T17:38:13.972Z,36.30
2019-04-16T17:40:45.093Z,33.75
2019-04-16T17:43:25.666Z,32.60
2019-04-16T17:46:02.605Z,33.08
2019-04-16T17:48:51.599Z,31.17
2019-04-16T17:51:22.926Z,30.00
2019-04-16T17:53:57.508Z,28.70
2019-04-16T17:56:31.309Z,26.30
2019-04-16T17:59:08.471Z,28.32
2019-04-16T18:01:40.410Z,26.07
2019-04-16T18:04:16.241Z,25.52
2019-04-16T18:06:47.392Z,25.48
2019-04-16T18:09:31.454Z,23.42
2019-04-16T18:12:05.308Z,22.48
2019-04-16T18:14:52.637Z,23.62
2019-04-16T18:17:27.673Z,24.20
2019-04-16T18:20:04.989Z,22.65
2019-04-16T18:22:41.973Z,21.82
2019-04-16T18:25:23.925Z,22.07
2019-04-16T18:28:04.342Z,20.15
2019-04-16T18:33:23.543Z,19.30
2019-04-16T18:35:54.736Z,18.35
2019-04-16T18:38:34.745Z,19.30
2019-04-16T18:41:19.268Z,19.42
2019-04-16T18:43:53.199Z,17.80
2019-04-16T18:46:40.796Z,18.65
2019-04-16T18:49:18.184Z,16.80
2019-04-16T18:51:49.265Z,17.37
2019-04-16T18:54:19.620Z,16.95
2019-04-16T18:56:49.461Z,16.55
2019-04-16T18:59:19.017Z,16.45
2019-04-16T19:01:50.196Z,16.55
2019-04-16T19:04:19.768Z,16.02
2019-04-16T19:06:49.353Z,15.15
2019-04-16T19:09:20.833Z,15.53
2019-04-16T19:11:50.140Z,15.08
2019-04-16T19:14:19.736Z,14.18
2019-04-16T19:16:49.289Z,13.32
2019-04-16T19:19:21.888Z,13.30
2019-04-16T19:21:52.229Z,12.18
2019-04-16T19:24:21.396Z,11.33
2019-04-16T19:26:50.975Z,12.45
2019-04-16T19:29:20.569Z,11.40
2019-04-16T19:31:54.980Z,11.65
2019-04-16T19:34:21.389Z,11.15
2019-04-16T19:36:50.997Z,11.08
2019-04-16T19:39:20.567Z,10.80
2019-04-16T19:41:55.616Z,10.18
2019-04-16T19:44:21.710Z,10.15
2019-04-16T19:46:53.735Z,9.25
2019-04-16T19:49:22.520Z,9.30
2019-04-16T19:51:52.109Z,8.68
2019-04-16T19:54:22.552Z,8.90
2019-04-16T19:56:53.182Z,8.50
2019-04-16T19:59:23.004Z,8.73
2019-04-16T20:01:55.974Z,7.60
2019-04-16T20:04:24.192Z,7.25
2019-04-16T20:06:59.151Z,7.65
2019-04-16T20:09:25.007Z,7.45
2019-04-16T20:11:55.360Z,7.67
2019-04-16T20:14:25.866Z,7.35
2019-04-16T20:16:55.427Z,7.67
2019-04-16T20:19:25.068Z,7.58
2019-04-16T20:21:54.929Z,7.55
2019-04-16T20:24:24.438Z,6.90
2019-04-16T20:26:54.023Z,6.60
2019-04-16T20:29:23.584Z,6.67
2019-04-16T20:31:53.344Z,6.62
2019-04-16T20:34:22.944Z,6.55
2019-04-16T20:36:55.767Z,6.50
2019-04-16T20:39:23.714Z,5.97
2019-04-16T20:41:58.441Z,5.60
2019-04-16T20:44:24.915Z,6.20
2019-04-16T20:46:54.477Z,6.10
2019-04-16T20:49:24.059Z,5.62
2019-04-16T20:51:56.607Z,5.83
2019-04-16T20:54:25.038Z,5.20
2019-04-16T20:56:55.015Z,5.70
2019-04-16T20:59:24.578Z,5.55
2019-04-16T21:01:54.213Z,5.85
2019-04-16T21:04:23.753Z,5.67
2019-04-16T21:06:53.340Z,4.95
2019-04-16T21:09:22.914Z,4.85
2019-04-16T21:11:53.322Z,4.97
2019-04-16T21:14:22.943Z,4.75
2019-04-16T21:16:52.484Z,5.40
2019-04-16T21:19:23.812Z,4.83
2019-04-16T21:21:56.476Z,4.85
2019-04-16T21:24:24.603Z,4.78
2019-04-16T21:26:54.418Z,4.40
2019-04-16T21:29:33.550Z,4.40
2019-04-16T21:32:04.400Z,4.30
2019-04-16T21:34:50.244Z,3.95
2019-04-16T21:37:25.160Z,4.37
2019-04-16T21:39:56.295Z,4.28
2019-04-16T21:42:28.510Z,3.90
2019-04-16T21:44:58.091Z,4.37
2019-04-16T21:47:27.725Z,3.77
2019-04-16T21:49:57.285Z,4.00
2019-04-16T21:52:26.863Z,3.75
2019-04-16T21:54:56.482Z,3.80
2019-04-16T21:57:26.000Z,3.98
2019-04-16T21:59:58.240Z,4.03
2019-04-16T22:02:31.263Z,3.70
2019-04-16T22:05:00.851Z,3.72
2019-04-16T22:07:30.393Z,4.10
2019-04-16T22:10:00.009Z,3.60
2019-04-16T22:12:29.581Z,3.45
2019-04-16T22:14:59.140Z,3.67
2019-04-16T22:17:32.553Z,3.98
2019-04-16T22:20:44.641Z,4.25
2019-04-16T22:23:19.083Z,3.40
2019-04-16T22:25:46.400Z,3.47
2019-04-16T22:28:16.000Z,3.55
2019-04-16T22:30:45.569Z,4.15
2019-04-16T22:33:15.152Z,4.15
2019-04-16T22:35:44.733Z,3.80
2019-04-16T22:38:14.506Z,3.67
2019-04-16T22:40:51.686Z,4.20
2019-04-16T22:43:22.368Z,3.87
2019-04-16T22:45:53.523Z,3.62
2019-04-16T22:48:23.085Z,3.45
2019-04-16T22:50:53.898Z,3.83
2019-04-16T22:53:23.459Z,3.80
2019-04-16T22:55:56.480Z,3.77
2019-04-16T22:58:25.142Z,3.50
2019-04-16T23:00:59.465Z,3.98
2019-04-16T23:03:28.899Z,3.80
2019-04-16T23:06:01.725Z,3.80
2019-04-16T23:08:29.139Z,3.60
2019-04-16T23:10:59.519Z,3.98
2019-04-16T23:13:32.589Z,3.80
2019-04-16T23:16:01.521Z,3.70
2019-04-16T23:18:30.853Z,3.60
2019-04-16T23:21:00.370Z,4.00
2019-04-16T23:23:29.937Z,3.65
2019-04-16T23:26:00.874Z,3.30
2019-04-16T23:28:30.576Z,3.87
2019-04-16T23:31:00.173Z,4.03
2019-04-16T23:33:32.532Z,3.75
2019-04-16T23:36:01.891Z,3.58
2019-04-16T23:38:32.401Z,3.87
2019-04-16T23:41:02.131Z,3.72
2019-04-16T23:43:36.506Z,3.70
2019-04-16T23:46:24.130Z,3.72
2019-04-16T23:48:55.285Z,4.03
2019-04-16T23:51:29.720Z,3.87
2019-04-16T23:54:19.232Z,4.00
2019-04-16T23:57:08.851Z,3.80
2019-04-16T23:59:43.169Z,3.80
